Time;durP1;ratioP1;P1;durP2;ratioP2;P2;SDS_P1;SDS_P2;PMS_P1;PMS_P2;Temp;Humidity;BMP_temperature;BMP_pressure;BME280_temperature;BME280_humidity;BME280_pressure;Samples;Min_cycle;Max_cycle;Signal;HPM_P1;HPM_P2
2022/11/29 00:00:30;;;;;;;37.70;19.83;;;;;;;4.69;100.00;101556.16;5052257;28;20025;-76
2022/11/29 00:02:55;;;;;;;39.50;20.65;;;;;;;4.68;100.00;101563.47;5036960;28;20522;-76
2022/11/29 00:05:21;;;;;;;49.22;21.52;;;;;;;4.68;100.00;101568.03;5057753;28;20021;-76
2022/11/29 00:07:46;;;;;;;43.95;22.23;;;;;;;4.66;100.00;101562.72;5063306;28;20032;-74
2022/11/29 00:10:12;;;;;;;40.92;21.27;;;;;;;4.68;100.00;101565.31;5052467;28;20492;-75
2022/11/29 00:12:37;;;;;;;41.10;20.08;;;;;;;4.65;100.00;101571.03;5058707;28;20476;-74
2022/11/29 00:15:04;;;;;;;47.88;20.55;;;;;;;4.58;100.00;101562.59;5054181;28;20032;-76
2022/11/29 00:17:29;;;;;;;;;;;;;;;4.57;100.00;101573.59;5034967;28;20032;-75
2022/11/29 00:19:55;;;;;;;32.25;19.33;;;;;;;4.54;100.00;101574.72;5049799;28;19925;-75
2022/11/29 00:22:22;;;;;;;37.08;18.92;;;;;;;4.48;100.00;101572.56;5056777;28;20068;-76
2022/11/29 00:24:47;;;;;;;34.28;18.67;;;;;;;4.44;100.00;101575.72;5022982;28;20028;-76
2022/11/29 00:27:13;;;;;;;43.58;20.77;;;;;;;4.43;100.00;101580.28;5056406;28;20028;-76
2022/11/29 00:29:38;;;;;;;36.58;18.88;;;;;;;4.41;100.00;101579.56;5059447;28;20060;-76
2022/11/29 00:32:03;;;;;;;34.45;19.20;;;;;;;4.37;100.00;101578.13;5052503;28;20051;-75
2022/11/29 00:34:29;;;;;;;40.22;20.88;;;;;;;4.39;100.00;101583.41;5062986;28;20137;-76
2022/11/29 00:36:54;;;;;;;33.22;19.23;;;;;;;4.41;100.00;101590.41;5040035;28;20059;-75
2022/11/29 00:39:20;;;;;;;36.13;18.85;;;;;;;4.38;100.00;101589.84;5039095;28;20037;-76
2022/11/29 00:41:45;;;;;;;41.13;19.45;;;;;;;4.36;100.00;101592.69;5061663;28;20021;-74
2022/11/29 00:44:11;;;;;;;39.65;18.38;;;;;;;4.31;100.00;101586.81;5036880;28;20064;-75
2022/11/29 00:46:36;;;;;;;56.35;20.35;;;;;;;4.22;100.00;101579.50;5057181;28;20036;-76
2022/11/29 00:49:02;;;;;;;44.60;20.08;;;;;;;4.20;100.00;101586.94;5037656;28;20023;-75
2022/11/29 00:51:27;;;;;;;47.08;20.55;;;;;;;4.20;100.00;101586.06;5038808;28;20033;-75
2022/11/29 00:53:53;;;;;;;49.05;22.48;;;;;;;4.22;100.00;101592.22;5043574;28;20119;-75
2022/11/29 00:56:18;;;;;;;46.55;20.58;;;;;;;4.19;100.00;101587.06;5052810;28;20086;-75
2022/11/29 00:58:43;;;;;;;37.38;19.15;;;;;;;4.18;100.00;101588.91;5038874;28;20052;-76
2022/11/29 01:01:10;;;;;;;31.52;17.85;;;;;;;4.15;100.00;101588.34;5051711;28;20484;-76
2022/11/29 01:03:35;;;;;;;41.28;19.25;;;;;;;4.14;100.00;101587.50;5053676;28;20067;-76
2022/11/29 01:06:09;;;;;;;41.22;20.08;;;;;;;4.08;100.00;101600.72;5051079;28;20548;-76
2022/11/29 01:08:35;;;;;;;48.83;19.77;;;;;;;4.10;100.00;101599.59;5056583;28;20033;-76
2022/11/29 01:11:16;;;;;;;43.83;19.65;;;;;;;4.12;100.00;101591.34;5057524;28;20028;-75
2022/11/29 01:13:42;;;;;;;73.75;21.95;;;;;;;4.14;100.00;101597.47;5038832;28;20029;-75
2022/11/29 01:16:08;;;;;;;71.03;22.13;;;;;;;4.16;100.00;101600.91;5051131;28;20451;-75
2022/11/29 01:18:36;;;;;;;175.35;24.00;;;;;;;4.08;100.00;101598.03;5052512;28;20079;-76
2022/11/29 01:21:10;;;;;;;138.48;23.33;;;;;;;4.03;100.00;101600.28;5048757;28;20385;-76
2022/11/29 01:23:36;;;;;;;97.82;22.05;;;;;;;4.05;100.00;101598.28;5039256;28;20066;-76
2022/11/29 01:26:14;;;;;;;60.67;22.07;;;;;;;4.08;100.00;101603.44;5048807;28;20032;-75
2022/11/29 01:28:40;;;;;;;;;;;;;;;4.05;100.00;101599.16;5055467;28;20113;-75
2022/11/29 01:31:11;;;;;;;82.97;22.38;;;;;;;4.09;100.00;101602.44;5051642;28;19917;-76
2022/11/29 01:33:36;;;;;;;86.55;22.50;;;;;;;4.10;100.00;101601.44;5056066;28;20063;-76
2022/11/29 01:36:03;;;;;;;127.82;23.25;;;;;;;4.09;100.00;101597.03;5036650;28;20029;-75
2022/11/29 01:38:29;;;;;;;115.20;21.85;;;;;;;4.08;100.00;101600.72;5052648;28;20131;-74
2022/11/29 01:41:07;;;;;;;67.03;21.55;;;;;;;4.10;100.00;101612.28;5050131;28;20032;-75
2022/11/29 01:43:52;;;;;;;51.00;19.02;;;;;;;4.10;100.00;101615.88;5059598;28;20091;-76
2022/11/29 01:46:17;;;;;;;37.13;17.98;;;;;;;4.14;100.00;101613.72;5040729;28;20383;-77
2022/11/29 01:48:43;;;;;;;124.38;21.52;;;;;;;4.09;100.00;101619.56;5056461;28;20029;-76
2022/11/29 01:51:08;;;;;;;87.15;19.40;;;;;;;4.07;100.00;101618.84;5056622;28;20768;-77
2022/11/29 01:53:33;;;;;;;68.03;19.65;;;;;;;4.09;100.00;101633.13;5057034;28;20039;-77
2022/11/29 01:56:03;;;;;;;116.72;19.85;;;;;;;4.08;100.00;101630.53;5057651;28;20024;-77
2022/11/29 01:58:29;;;;;;;60.15;17.55;;;;;;;4.07;100.00;101637.81;5056249;28;20033;-76
2022/11/29 02:00:55;;;;;;;62.88;19.40;;;;;;;4.14;100.00;101646.25;5055537;28;20122;-76
2022/11/29 02:03:21;;;;;;;70.68;19.67;;;;;;;4.19;100.00;101644.00;5058350;28;20052;-78
2022/11/29 02:05:49;;;;;;;65.88;19.35;;;;;;;4.23;100.00;101635.44;5039235;28;20118;-78
2022/11/29 02:08:19;;;;;;;68.55;20.33;;;;;;;4.29;100.00;101637.63;5057964;28;20040;-76
2022/11/29 02:11:11;;;;;;;52.08;20.38;;;;;;;4.32;100.00;101642.75;5054950;28;20033;-77
2022/11/29 02:13:48;;;;;;;88.53;21.77;;;;;;;4.37;100.00;101643.22;5057457;28;20124;-75
2022/11/29 02:16:20;;;;;;;84.70;20.65;;;;;;;4.40;100.00;101648.38;5033106;28;20036;-75
2022/11/29 02:19:03;;;;;;;59.30;18.50;;;;;;;4.45;100.00;101645.22;5056741;28;20072;-74
2022/11/29 02:21:41;;;;;;;119.57;22.63;;;;;;;4.45;100.00;101645.22;5049111;28;20048;-77
2022/11/29 02:24:19;;;;;;;;;;;;;;;4.45;100.00;101650.66;5057245;28;20032;-75
2022/11/29 02:26:58;;;;;;;79.93;18.47;;;;;;;4.53;100.00;101643.53;5053774;28;20003;-76
2022/11/29 02:29:29;;;;;;;168.95;22.50;;;;;;;4.59;100.00;101650.28;5057366;28;20369;-76
2022/11/29 02:32:41;;;;;;;136.95;21.52;;;;;;;4.58;100.00;101653.97;5047679;28;20033;-76
2022/11/29 02:35:46;;;;;;;119.43;21.55;;;;;;;4.55;100.00;101656.97;5059278;28;20036;-75
2022/11/29 02:38:29;;;;;;;112.78;20.58;;;;;;;4.58;100.00;101656.66;4969623;28;20039;-74
2022/11/29 02:41:29;;;;;;;130.63;20.77;;;;;;;4.55;100.00;101656.97;5053187;28;20055;-75
2022/11/29 02:44:17;;;;;;;64.60;18.73;;;;;;;4.56;100.00;101661.38;5057660;28;20071;-75
2022/11/29 02:47:27;;;;;;;111.90;19.52;;;;;;;4.57;100.00;101671.25;5039290;28;20045;-76
2022/11/29 02:49:58;;;;;;;70.00;18.08;;;;;;;4.56;100.00;101666.81;5020782;28;20045;-76
2022/11/29 02:52:34;;;;;;;61.80;18.45;;;;;;;4.54;100.00;101676.97;5055099;28;20638;-76
2022/11/29 02:55:11;;;;;;;94.22;19.48;;;;;;;4.52;100.00;101674.38;5056499;28;20032;-76
2022/11/29 02:57:55;;;;;;;81.53;18.83;;;;;;;4.52;100.00;101673.50;5055498;28;20041;-77
2022/11/29 03:00:22;;;;;;;80.65;19.38;;;;;;;4.46;100.00;101671.34;5047200;28;20036;-76
2022/11/29 03:02:51;;;;;;;73.00;18.65;;;;;;;4.44;100.00;101679.63;5034906;28;20036;-75
2022/11/29 03:05:34;;;;;;;29.00;16.85;;;;;;;4.45;100.00;101683.19;5056875;28;20032;-76
2022/11/29 03:08:08;;;;;;;52.17;17.60;;;;;;;4.41;100.00;101687.19;5059535;28;20039;-75
2022/11/29 03:10:45;;;;;;;58.63;18.15;;;;;;;4.37;100.00;101693.84;5058746;28;20388;-77
2022/11/29 03:13:42;;;;;;;52.40;17.85;;;;;;;4.38;100.00;101692.91;5055988;28;20036;-75
2022/11/29 03:16:20;;;;;;;55.17;17.95;;;;;;;4.38;100.00;101693.72;5055010;28;20104;-75
2022/11/29 03:18:55;;;;;;;58.95;18.73;;;;;;;4.38;100.00;101693.72;5050106;28;20032;-77
2022/11/29 03:21:29;;;;;;;39.25;18.80;;;;;;;4.38;100.00;101695.59;5044474;28;20037;-76
2022/11/29 03:24:04;;;;;;;47.53;17.80;;;;;;;4.38;100.00;101693.72;5056214;28;20566;-77
2022/11/29 03:26:38;;;;;;;34.05;17.13;;;;;;;4.39;100.00;101710.88;5053293;28;20035;-75
2022/11/29 03:29:36;;;;;;;44.15;18.42;;;;;;;4.41;100.00;101707.03;5037059;28;20036;-75
2022/11/29 03:32:24;;;;;;;69.75;17.48;;;;;;;4.46;100.00;101704.78;5054549;28;20066;-76
2022/11/29 03:35:03;;;;;;;35.13;16.73;;;;;;;4.54;100.00;101710.34;5048839;28;20025;-76
2022/11/29 03:37:40;;;;;;;41.10;18.23;;;;;;;4.60;100.00;101720.66;5039283;28;20110;-76
2022/11/29 03:40:18;;;;;;;72.70;18.90;;;;;;;4.61;100.00;101714.25;5055950;28;20424;-76
2022/11/29 03:42:43;;;;;;;;;;;;;;;4.68;100.00;101706.38;5059734;28;20112;-77
2022/11/29 03:45:50;;;;;;;41.72;16.15;;;;;;;4.72;100.00;101718.69;5058543;28;20467;-76
2022/11/29 03:48:47;;;;;;;51.28;17.25;;;;;;;4.78;100.00;101720.84;5005292;28;20045;-76
2022/11/29 03:51:14;;;;;;;64.18;18.73;;;;;;;4.83;100.00;101724.00;5033602;28;20064;-75
2022/11/29 03:53:58;;;;;;;82.00;18.00;;;;;;;4.87;100.00;101723.56;5063088;28;20028;-77
2022/11/29 03:56:32;;;;;;;74.03;16.70;;;;;;;4.85;100.00;101727.41;5054249;28;20496;-77
2022/11/29 03:59:28;;;;;;;72.18;17.85;;;;;;;4.88;100.00;101729.88;5058494;28;20488;-76
2022/11/29 04:02:25;;;;;;;53.50;16.42;;;;;;;4.90;100.00;101733.28;5056756;28;20447;-77
2022/11/29 04:05:19;;;;;;;86.00;17.08;;;;;;;4.90;100.00;101736.88;5061232;28;20174;-77
2022/11/29 04:08:06;;;;;;;74.50;17.98;;;;;;;4.89;100.00;101737.00;5061058;28;20472;-77
2022/11/29 04:10:57;;;;;;;48.17;16.40;;;;;;;4.99;100.00;101730.63;5056133;28;20572;-77
2022/11/29 04:13:52;;;;;;;52.70;15.18;;;;;;;5.11;100.00;101742.19;5054790;28;20021;-75
2022/11/29 04:16:53;;;;;;;33.80;16.33;;;;;;;5.02;100.00;101733.03;5053006;28;20448;-75
2022/11/29 04:19:21;;;;;;;30.30;15.48;;;;;;;5.01;100.00;101744.03;5057517;28;20110;-76
2022/11/29 04:21:56;;;;;;;43.55;17.25;;;;;;;5.00;100.00;101745.03;5054321;28;20029;-75
2022/11/29 04:24:30;;;;;;;33.42;15.32;;;;;;;4.99;100.00;101744.19;5044527;28;20081;-75
2022/11/29 04:27:32;;;;;;;25.48;15.85;;;;;;;4.99;100.00;101746.91;5049817;28;20154;-75
2022/11/29 04:30:06;;;;;;;31.23;15.45;;;;;;;4.99;100.00;101744.19;5055699;28;20029;-75
2022/11/29 04:32:40;;;;;;;28.77;15.75;;;;;;;5.02;100.00;101748.50;5056145;28;20056;-77
2022/11/29 04:35:18;;;;;;;24.50;15.13;;;;;;;5.05;100.00;101756.34;5036534;28;20028;-77
2022/11/29 04:37:55;;;;;;;21.55;14.95;;;;;;;5.04;100.00;101750.06;5055448;28;20135;-77
2022/11/29 04:40:55;;;;;;;26.20;14.68;;;;;;;5.05;100.00;101753.63;5058623;28;20024;-78
2022/11/29 04:43:41;;;;;;;25.15;15.55;;;;;;;5.03;100.00;101753.75;5053557;28;20033;-78
2022/11/29 04:46:24;;;;;;;24.50;15.88;;;;;;;5.02;100.00;101760.19;5058023;28;20040;-75
2022/11/29 04:49:17;;;;;;;30.23;16.38;;;;;;;5.07;100.00;101766.06;5059468;28;20488;-75
2022/11/29 04:52:05;;;;;;;46.67;16.27;;;;;;;5.12;100.00;101765.66;5057002;28;20025;-75
2022/11/29 04:54:42;;;;;;;53.80;17.95;;;;;;;5.12;100.00;101761.06;5056413;28;20058;-75
2022/11/29 04:57:36;;;;;;;62.10;18.13;;;;;;;5.17;100.00;101758.78;5037209;28;20028;-76
2022/11/29 05:00:11;;;;;;;37.63;15.80;;;;;;;5.13;100.00;101751.91;5001677;28;20492;-76
2022/11/29 05:02:39;;;;;;;60.08;16.15;;;;;;;5.13;100.00;101759.22;5053226;28;20036;-76
2022/11/29 05:05:23;;;;;;;83.57;16.88;;;;;;;5.11;100.00;101747.63;5051995;28;20039;-76
2022/11/29 05:08:00;;;;;;;61.35;14.57;;;;;;;5.08;100.00;101756.06;5057774;28;20036;-76
2022/11/29 05:10:50;;;;;;;89.38;16.67;;;;;;;5.07;100.00;101757.06;5037714;28;20029;-76
2022/11/29 05:13:43;;;;;;;63.55;16.48;;;;;;;5.06;100.00;101767.06;5055550;28;20057;-77
2022/11/29 05:16:44;;;;;;;81.68;16.02;;;;;;;5.06;100.00;101763.47;5040037;28;20396;-76
2022/11/29 05:19:34;;;;;;;86.47;14.85;;;;;;;5.07;100.00;101767.94;5057919;28;20041;-76
2022/11/29 05:22:22;;;;;;;63.78;14.90;;;;;;;5.07;100.00;101767.94;5053902;28;20079;-78
2022/11/29 05:25:12;;;;;;;82.40;15.27;;;;;;;5.06;100.00;101788.78;5052411;28;20021;-76
2022/11/29 05:27:51;;;;;;;66.85;16.08;;;;;;;5.10;100.00;101789.34;5055458;28;20029;-77
2022/11/29 05:30:57;;;;;;;76.25;14.52;;;;;;;5.15;100.00;101792.53;5057464;28;20041;-76
2022/11/29 05:33:34;;;;;;;56.03;14.90;;;;;;;5.16;100.00;101800.53;5049414;28;20436;-75
2022/11/29 05:36:37;;;;;;;57.85;13.23;;;;;;;5.19;100.00;101810.25;5053269;28;20066;-76
2022/11/29 05:39:36;;;;;;;54.60;13.45;;;;;;;5.26;100.00;101814.13;5050684;28;20025;-75
2022/11/29 05:42:27;;;;;;;61.38;14.52;;;;;;;5.29;100.00;101811.97;5056179;28;20029;-77
2022/11/29 05:45:01;;;;;;;49.70;15.30;;;;;;;5.36;100.00;101824.03;5049687;28;20433;-76
2022/11/29 05:47:45;;;;;;;69.85;14.35;;;;;;;5.30;100.00;101823.72;5057126;28;20607;-76
2022/11/29 05:50:25;;;;;;;53.08;15.38;;;;;;;5.31;100.00;101829.03;5054664;28;20477;-74
2022/11/29 05:53:24;;;;;;;75.50;15.35;;;;;;;5.35;100.00;101821.44;5052515;28;20021;-75
2022/11/29 05:55:55;;;;;;;;;;;;;;;5.39;100.00;101825.59;5042231;28;20033;-75
2022/11/29 05:58:35;;;;;;;41.63;14.30;;;;;;;5.39;100.00;101825.59;5033379;28;19927;-75
2022/11/29 06:01:22;;;;;;;50.70;13.88;;;;;;;5.45;100.00;101830.47;5047062;28;20021;-75
2022/11/29 06:04:16;;;;;;;55.75;13.95;;;;;;;5.46;100.00;101840.34;5050499;28;20028;-75
2022/11/29 06:07:03;;;;;;;32.22;14.57;;;;;;;5.42;100.00;101839.75;5055269;28;20449;-76
2022/11/29 06:09:39;;;;;;;37.67;14.35;;;;;;;5.44;100.00;101843.19;5056272;28;20063;-76
2022/11/29 06:12:14;;;;;;;45.85;14.13;;;;;;;5.47;100.00;101856.50;5049423;28;20056;-76
2022/11/29 06:14:58;;;;;;;30.52;13.82;;;;;;;5.50;100.00;101856.22;5054338;28;20436;-76
2022/11/29 06:17:51;;;;;;;45.83;14.32;;;;;;;5.51;100.00;101854.34;5038012;28;20128;-76
2022/11/29 06:20:41;;;;;;;46.13;14.57;;;;;;;5.59;100.00;101857.22;5052283;28;20033;-77
2022/11/29 06:23:10;;;;;;;74.57;14.27;;;;;;;5.58;100.00;101863.66;5054713;28;20044;-76
2022/11/29 06:25:38;;;;;;;80.93;16.70;;;;;;;5.57;100.00;101862.81;5052507;28;20021;-77
2022/11/29 06:28:17;;;;;;;46.97;15.38;;;;;;;5.55;100.00;101862.06;5055361;28;20059;-77
2022/11/29 06:30:59;;;;;;;54.20;14.90;;;;;;;5.55;100.00;101861.25;5043370;28;20029;-76
2022/11/29 06:33:33;;;;;;;70.45;14.80;;;;;;;5.69;100.00;101871.69;5046375;28;20028;-76
2022/11/29 06:36:11;;;;;;;61.78;13.82;;;;;;;5.65;100.00;101875.66;5033678;28;20033;-76
2022/11/29 06:38:36;;;;;;;103.85;15.93;;;;;;;5.66;100.00;101880.13;5055203;28;20036;-75
2022/11/29 06:41:03;;;;;;;111.00;15.40;;;;;;;5.73;100.00;101882.16;5059679;28;20043;-75
2022/11/29 06:43:29;;;;;;;;;;;;;;;5.73;100.00;101886.72;5057533;28;20036;-75
2022/11/29 06:46:21;;;;;;;102.18;15.20;;;;;;;5.76;100.00;101881.84;5060653;28;20376;-76
2022/11/29 06:48:52;;;;;;;144.70;15.52;;;;;;;5.76;100.00;101886.44;5036692;28;20040;-75
2022/11/29 06:51:44;;;;;;;163.02;17.60;;;;;;;5.81;100.00;101900.47;5058849;28;20032;-75
2022/11/29 06:54:32;;;;;;;101.60;16.58;;;;;;;5.77;100.00;101902.59;5008109;28;20116;-75
2022/11/29 06:57:05;;;;;;;143.18;17.27;;;;;;;5.77;100.00;101907.19;5058112;28;20025;-74
2022/11/29 06:59:41;;;;;;;135.93;18.05;;;;;;;5.85;100.00;101908.22;5059668;28;20111;-74
2022/11/29 07:02:09;;;;;;;143.85;19.00;;;;;;;5.93;100.00;101904.81;5035880;28;20369;-74
2022/11/29 07:04:47;;;;;;;126.95;17.98;;;;;;;5.88;100.00;101916.09;5035148;28;20436;-74
2022/11/29 07:07:14;;;;;;;;;;;;;;;5.88;100.00;101918.81;5049974;28;20074;-74
2022/11/29 07:09:40;;;;;;;112.38;16.40;;;;;;;5.86;100.00;101922.66;5058767;28;19921;-75
2022/11/29 07:12:06;;;;;;;115.85;18.17;;;;;;;5.86;100.00;101930.81;5050829;28;20103;-75
2022/11/29 07:14:32;;;;;;;107.28;17.77;;;;;;;5.88;100.00;101934.28;5058182;28;20155;-75
2022/11/29 07:17:07;;;;;;;153.60;18.83;;;;;;;5.93;100.00;101934.72;5053257;28;20037;-76
2022/11/29 07:20:00;;;;;;;107.63;19.02;;;;;;;5.95;100.00;101928.16;5032094;28;20430;-77
2022/11/29 07:23:08;;;;;;;125.03;18.40;;;;;;;5.99;100.00;101931.44;5055214;28;20025;-74
2022/11/29 07:25:50;;;;;;;160.48;19.73;;;;;;;6.02;100.00;101936.56;5041357;28;21057;-76
2022/11/29 07:28:48;;;;;;;221.40;20.45;;;;;;;6.04;100.00;101942.75;5034447;28;20032;-74
2022/11/29 07:31:29;;;;;;;173.85;20.45;;;;;;;6.07;100.00;101942.44;5055836;28;20064;-76
2022/11/29 07:34:16;;;;;;;222.48;21.45;;;;;;;6.08;100.00;101946.91;5030856;28;20039;-75
2022/11/29 07:37:17;;;;;;;157.48;19.63;;;;;;;6.10;100.00;101953.06;5047828;28;20503;-76
2022/11/29 07:39:49;;;;;;;101.65;18.58;;;;;;;6.15;100.00;101958.94;5007104;28;20062;-75
2022/11/29 07:42:45;;;;;;;145.25;20.00;;;;;;;6.29;100.00;101955.78;5048068;28;20036;-76
2022/11/29 07:45:10;;;;;;;153.68;20.85;;;;;;;6.28;100.00;101954.06;5049674;28;20117;-76
2022/11/29 07:47:35;;;;;;;204.30;24.17;;;;;;;6.31;100.00;101949.19;5050132;28;20607;-76
2022/11/29 07:50:00;;;;;;;173.63;20.25;;;;;;;6.32;100.00;101956.38;5057800;28;20028;-75
2022/11/29 07:52:27;;;;;;;230.88;21.67;;;;;;;6.36;100.00;101956.94;5053886;28;20035;-75
2022/11/29 07:54:52;;;;;;;146.88;20.30;;;;;;;6.37;100.00;101953.22;5060845;28;20115;-75
2022/11/29 07:57:17;;;;;;;150.73;22.77;;;;;;;6.39;100.00;101956.63;5054376;28;20244;-74
2022/11/29 07:59:43;;;;;;;131.30;22.92;;;;;;;6.41;100.00;101962.81;5054696;28;20036;-74
2022/11/29 08:02:10;;;;;;;118.07;23.50;;;;;;;6.44;100.00;101967.94;5033867;28;20028;-75
2022/11/29 08:04:41;;;;;;;276.27;26.15;;;;;;;6.48;100.00;101972.97;5053869;28;20032;-74
2022/11/29 08:07:06;;;;;;;140.48;22.90;;;;;;;6.53;100.00;101972.53;5051106;28;20048;-74
2022/11/29 08:09:32;;;;;;;119.28;25.10;;;;;;;6.59;100.00;101974.69;5054618;28;20036;-75
2022/11/29 08:11:57;;;;;;;133.45;27.08;;;;;;;6.54;100.00;101956.06;5048861;28;20076;-75
2022/11/29 08:14:23;;;;;;;94.32;24.67;;;;;;;6.65;100.00;101964.09;5055221;28;20025;-75
2022/11/29 08:16:48;;;;;;;80.43;24.50;;;;;;;6.66;100.00;101967.66;5047575;28;20401;-75
2022/11/29 08:19:14;;;;;;;108.25;24.13;;;;;;;6.69;100.00;101960.09;5043326;28;20029;-75
2022/11/29 08:21:42;;;;;;;131.23;22.85;;;;;;;6.77;100.00;101972.94;5052802;28;20385;-75
2022/11/29 08:24:08;;;;;;;104.28;23.48;;;;;;;6.79;100.00;101974.50;5046475;28;20465;-76
2022/11/29 08:26:33;;;;;;;106.50;23.60;;;;;;;6.81;100.00;101982.53;5030655;28;20056;-76
2022/11/29 08:28:59;;;;;;;86.18;23.23;;;;;;;6.82;100.00;101984.25;5047390;28;20031;-76
2022/11/29 08:31:24;;;;;;;178.63;25.33;;;;;;;6.80;100.00;101978.09;5053227;28;20422;-76
2022/11/29 08:33:49;;;;;;;119.07;24.08;;;;;;;6.84;100.00;101987.72;5035075;28;20138;-76
2022/11/29 08:36:18;;;;;;;307.25;26.08;;;;;;;6.86;100.00;101991.13;5035606;28;20024;-75
2022/11/29 08:38:43;;;;;;;253.48;26.02;;;;;;;6.87;100.00;101990.13;5053052;28;20033;-76
2022/11/29 08:41:12;;;;;;;142.95;24.30;;;;;;;6.89;100.00;101994.41;5052596;28;20568;-76
2022/11/29 08:43:37;;;;;;;139.23;23.90;;;;;;;6.95;100.00;102006.63;5046432;28;20040;-76
2022/11/29 08:46:02;;;;;;;219.77;25.48;;;;;;;6.97;100.00;102001.88;5049827;28;20020;-75
2022/11/29 08:48:28;;;;;;;166.13;27.13;;;;;;;7.00;100.00;101998.88;5048806;28;20051;-75
2022/11/29 08:50:54;;;;;;;274.40;28.33;;;;;;;7.12;100.00;102011.31;5057815;28;20024;-76
2022/11/29 08:56:04;;;;;;;214.48;26.33;;;;;;;7.23;100.00;102013.84;5050047;28;20048;-76
2022/11/29 08:58:30;;;;;;;236.45;27.15;;;;;;;7.28;100.00;102017.00;5055494;28;20472;-76
2022/11/29 09:00:56;;;;;;;264.73;27.58;;;;;;;7.31;100.00;102016.72;5033585;28;20828;-75
2022/11/29 09:06:11;;;;;;;128.82;24.25;;;;;;;7.36;100.00;102025.31;5050510;28;20036;-76
2022/11/29 09:08:37;;;;;;;228.27;26.13;;;;;;;7.40;100.00;102026.72;5054771;28;20484;-76
2022/11/29 09:11:14;;;;;;;134.48;23.85;;;;;;;7.43;100.00;102029.16;5057112;28;20017;-76
2022/11/29 09:13:44;;;;;;;120.82;22.75;;;;;;;7.47;100.00;102031.44;5053472;28;20069;-76
2022/11/29 09:16:13;;;;;;;125.72;22.00;;;;;;;7.50;100.00;102033.88;5049341;28;20112;-75
2022/11/29 09:18:40;;;;;;;154.75;24.20;;;;;;;7.50;100.00;102038.44;5051290;28;20028;-76
2022/11/29 09:21:07;;;;;;;169.20;24.08;;;;;;;7.55;100.00;102028.84;5059261;28;20036;-76
2022/11/29 09:23:33;;;;;;;128.43;23.38;;;;;;;7.54;100.00;102038.00;5054240;28;20039;-74
2022/11/29 09:25:59;;;;;;;166.48;25.52;;;;;;;7.54;100.00;102040.72;5050188;28;20037;-74
2022/11/29 09:28:24;;;;;;;206.23;24.33;;;;;;;7.56;100.00;102046.91;5053802;28;20096;-76
2022/11/29 09:30:50;;;;;;;137.48;24.45;;;;;;;7.62;100.00;102053.63;5031768;28;20387;-75
2022/11/29 09:33:15;;;;;;;129.40;24.20;;;;;;;7.65;100.00;102056.06;5036051;28;20100;-74
2022/11/29 09:35:41;;;;;;;212.85;27.55;;;;;;;7.65;100.00;102045.16;5052767;28;20121;-75
2022/11/29 09:38:06;;;;;;;89.30;25.33;;;;;;;7.64;100.00;102057.91;5055124;28;20033;-75
2022/11/29 09:40:51;;;;;;;143.77;23.73;;;;;;;7.63;100.00;102044.44;5049137;28;20017;-74
2022/11/29 09:43:19;;;;;;;160.02;25.45;;;;;;;7.76;100.00;102061.31;5044009;28;20102;-75
2022/11/29 09:45:52;;;;;;;120.68;23.20;;;;;;;7.74;100.00;102069.66;5053796;28;20032;-75
2022/11/29 09:48:48;;;;;;;138.27;23.73;;;;;;;7.77;100.00;102069.34;5051339;28;20499;-75
2022/11/29 09:51:29;;;;;;;145.52;25.27;;;;;;;7.77;100.00;102063.03;5051853;28;20115;-74
2022/11/29 09:54:09;;;;;;;160.88;22.67;;;;;;;7.77;100.00;102057.56;5051738;28;20361;-75
2022/11/29 09:56:46;;;;;;;125.57;23.73;;;;;;;7.87;100.00;102072.03;5051637;28;20098;-75
2022/11/29 09:59:20;;;;;;;184.00;24.70;;;;;;;7.86;100.00;102065.72;5048579;28;20606;-74
2022/11/29 10:01:53;;;;;;;172.25;23.65;;;;;;;7.94;100.00;102074.03;5050963;28;20075;-74
2022/11/29 10:04:24;;;;;;;200.18;24.65;;;;;;;7.97;100.00;102072.88;5053748;28;20028;-75
2022/11/29 10:06:55;;;;;;;154.50;22.38;;;;;;;8.02;100.00;102062.34;5030441;28;20056;-75
2022/11/29 10:10:26;;;;;;;174.73;24.50;;;;;;;8.04;100.00;102061.19;5052235;28;20090;-76
2022/11/29 10:12:58;;;;;;;192.20;22.50;;;;;;;8.11;100.00;102065.03;5009091;28;20578;-76
2022/11/29 10:15:26;;;;;;;166.88;22.75;;;;;;;8.16;100.00;102072.78;5011582;28;20037;-76
2022/11/29 10:18:14;;;;;;;160.70;22.48;;;;;;;8.14;100.00;102067.47;5040631;28;20044;-76
2022/11/29 10:20:43;;;;;;;153.02;23.20;;;;;;;8.22;100.00;102064.00;5056572;28;20032;-75
2022/11/29 10:23:34;;;;;;;203.95;23.48;;;;;;;8.33;100.00;102066.53;5052731;28;20060;-75
2022/11/29 10:25:59;;;;;;;173.45;24.35;;;;;;;8.34;100.00;102060.88;5056340;28;20029;-75
2022/11/29 10:28:30;;;;;;;134.10;22.13;;;;;;;8.32;100.00;102062.94;5055367;28;20036;-75
2022/11/29 10:31:00;;;;;;;136.07;24.10;;;;;;;8.40;100.00;102068.50;5038208;28;20025;-75
2022/11/29 10:33:30;;;;;;;184.10;25.45;;;;;;;8.39;100.00;102068.66;5052776;28;21222;-75
2022/11/29 10:35:58;;;;;;;153.95;23.20;;;;;;;8.38;100.00;102072.38;5051397;28;20025;-75
2022/11/29 10:38:24;;;;;;;95.40;22.77;;;;;;;8.45;100.00;102073.50;5054922;28;20029;-75
2022/11/29 10:40:56;;;;;;;113.93;23.85;;;;;;;8.50;100.00;102073.88;5032846;28;20503;-75
2022/11/29 10:43:23;;;;;;;99.30;22.48;;;;;;;8.49;100.00;102066.72;5055341;28;20543;-75
2022/11/29 10:45:54;;;;;;;95.95;21.38;;;;;;;8.43;100.00;102068.16;5038227;28;20040;-75
2022/11/29 10:48:22;;;;;;;88.82;19.92;;;;;;;8.42;100.00;102068.31;5057748;28;20485;-75
2022/11/29 10:50:49;;;;;;;92.03;19.08;;;;;;;8.43;100.00;102067.34;5055082;28;20021;-75
2022/11/29 10:53:16;;;;;;;75.25;18.05;;;;;;;8.54;100.00;102069.84;5056976;28;20036;-76
2022/11/29 10:56:08;;;;;;;93.20;16.63;;;;;;;8.57;100.00;102077.72;5054497;28;20028;-76
2022/11/29 10:58:35;;;;;;;48.28;15.02;;;;;;;8.44;100.00;102069.88;5052628;28;20033;-75
2022/11/29 11:01:01;;;;;;;48.65;14.15;;;;;;;8.45;100.00;102078.94;5054686;28;20345;-76
2022/11/29 11:03:39;;;;;;;49.65;14.43;;;;;;;8.41;100.00;102078.41;5053152;28;20029;-75
2022/11/29 11:06:12;;;;;;;68.20;17.38;;;;;;;8.48;100.00;102070.47;5053440;28;20025;-75
2022/11/29 11:08:40;;;;;;;55.83;17.48;;;;;;;8.37;100.00;102073.38;5048908;28;20531;-75
2022/11/29 11:11:07;;;;;;;56.65;16.85;;;;;;;8.35;100.00;102086.34;5054768;28;20392;-75
2022/11/29 11:13:34;;;;;;;61.65;16.48;;;;;;;8.35;100.00;102084.47;5053771;28;20029;-76
2022/11/29 11:16:16;;;;;;;;;;;;;;;8.38;100.00;102081.41;5057352;28;20036;-75
2022/11/29 11:18:43;;;;;;;46.25;15.63;;;;;;;8.36;100.00;102083.47;5053569;28;19959;-76
2022/11/29 11:21:11;;;;;;;45.40;15.43;;;;;;;8.30;100.00;102077.75;5055020;28;20449;-75
2022/11/29 11:24:04;;;;;;;48.53;16.27;;;;;;;8.29;100.00;102084.22;5057142;28;20033;-76
2022/11/29 11:26:43;;;;;;;50.42;16.67;;;;;;;8.27;100.00;102083.53;5046691;28;20045;-75
2022/11/29 11:29:18;;;;;;;50.95;16.70;;;;;;;8.27;100.00;102089.81;5046793;28;20048;-76
2022/11/29 11:31:58;;;;;;;47.50;16.77;;;;;;;8.31;100.00;102095.81;5053111;28;20032;-76
2022/11/29 11:34:27;;;;;;;50.92;17.73;;;;;;;8.27;100.00;102088.97;5031911;28;20028;-76
2022/11/29 11:37:18;;;;;;;50.30;18.95;;;;;;;8.26;100.00;102096.28;5039125;28;20093;-76
2022/11/29 11:39:46;;;;;;;49.38;18.13;;;;;;;8.30;100.00;102102.31;5053879;28;20035;-76
2022/11/29 11:45:00;;;;;;;54.40;18.05;;;;;;;8.30;100.00;102094.13;5053140;28;20161;-75
2022/11/29 11:47:28;;;;;;;51.47;17.95;;;;;;;8.38;100.00;102102.41;5052338;28;20060;-76
2022/11/29 11:50:03;;;;;;;47.08;17.90;;;;;;;8.50;100.00;102109.38;5053929;28;20028;-76
2022/11/29 11:52:43;;;;;;;41.72;18.00;;;;;;;8.47;100.00;102106.94;5051032;28;20140;-75
2022/11/29 11:55:20;;;;;;;46.55;18.33;;;;;;;8.47;100.00;102104.22;5048509;28;20037;-76